createdAt,value
2023-04-19T00:00:35.344Z,1021.24
2023-04-19T00:01:35.336Z,1021.19
2023-04-19T00:02:35.427Z,1021.18
2023-04-19T00:03:35.630Z,1021.15
2023-04-19T00:04:35.425Z,1021.17
2023-04-19T00:05:35.332Z,1021.16
2023-04-19T00:06:35.332Z,1021.19
2023-04-19T00:07:35.318Z,1021.12
2023-04-19T00:08:35.314Z,1021.17
2023-04-19T00:09:35.320Z,1021.14
2023-04-19T00:10:35.378Z,1021.11
2023-04-19T00:11:35.308Z,1021.10
2023-04-19T00:12:35.305Z,1021.13
2023-04-19T00:13:35.302Z,1021.16
2023-04-19T00:14:35.292Z,1021.10
2023-04-19T00:15:35.287Z,1021.07
2023-04-19T00:16:35.333Z,1021.12
2023-04-19T00:17:35.556Z,1021.07
2023-04-19T00:18:35.279Z,1021.10
2023-04-19T00:19:35.277Z,1021.09
2023-04-19T00:20:35.270Z,1021.05
2023-04-19T00:21:35.268Z,1021.05
2023-04-19T00:22:35.268Z,1021.05
2023-04-19T00:23:35.270Z,1021.05
2023-04-19T00:24:35.260Z,1021.03
2023-04-19T00:25:35.262Z,1021.06
2023-04-19T00:26:35.388Z,1021.06
2023-04-19T00:27:35.265Z,1021.04
2023-04-19T00:28:35.258Z,1021.04
2023-04-19T00:29:35.244Z,1021.03
2023-04-19T00:30:35.280Z,1021.04
2023-04-19T00:31:35.241Z,1021.01
2023-04-19T00:32:35.250Z,1021.03
2023-04-19T00:33:35.231Z,1021.03
2023-04-19T00:34:35.227Z,1021.00
2023-04-19T00:35:35.222Z,1021.03
2023-04-19T00:36:35.217Z,1021.07
2023-04-19T00:37:35.224Z,1021.03
2023-04-19T00:38:35.213Z,1021.03
2023-04-19T00:39:35.212Z,1021.06
2023-04-19T00:40:35.205Z,1021.08
2023-04-19T00:41:35.980Z,1021.04
2023-04-19T00:42:35.222Z,1021.04
2023-04-19T00:43:35.204Z,1021.01
2023-04-19T00:44:35.191Z,1021.03
2023-04-19T00:45:35.189Z,1021.04
2023-04-19T00:46:35.226Z,1021.04
2023-04-19T00:47:35.227Z,1021.02
2023-04-19T00:48:35.179Z,1021.00
2023-04-19T00:49:35.180Z,1020.99
2023-04-19T00:50:35.176Z,1020.98
2023-04-19T00:51:35.173Z,1021.00
2023-04-19T00:52:35.171Z,1021.03
2023-04-19T00:53:35.178Z,1021.02
2023-04-19T00:54:35.165Z,1021.04
2023-04-19T00:55:35.158Z,1020.97
2023-04-19T00:56:35.157Z,1021.00
2023-04-19T00:57:35.154Z,1020.95
2023-04-19T00:58:35.171Z,1021.00
2023-04-19T00:59:35.159Z,1020.98
2023-04-19T01:00:35.138Z,1020.94
2023-04-19T01:01:35.188Z,1020.96
2023-04-19T01:02:35.277Z,1020.97
2023-04-19T01:03:35.378Z,1020.92
2023-04-19T01:04:35.203Z,1020.92
2023-04-19T01:05:35.123Z,1020.94
2023-04-19T01:06:35.116Z,1020.93
2023-04-19T01:07:35.146Z,1020.88
2023-04-19T01:08:35.110Z,1020.87
2023-04-19T01:09:35.110Z,1020.89
2023-04-19T01:10:35.110Z,1020.87
2023-04-19T01:11:35.109Z,1020.87
2023-04-19T01:12:35.099Z,1020.86
2023-04-19T01:13:35.097Z,1020.88
2023-04-19T01:14:35.113Z,1020.87
2023-04-19T01:15:35.170Z,1020.87
2023-04-19T01:16:35.087Z,1020.82
2023-04-19T01:17:35.140Z,1020.85
2023-04-19T01:18:35.078Z,1020.80
2023-04-19T01:19:35.078Z,1020.82
2023-04-19T01:20:35.073Z,1020.81
2023-04-19T01:21:35.070Z,1020.81
2023-04-19T01:22:35.067Z,1020.81
2023-04-19T01:23:35.065Z,1020.82
2023-04-19T01:24:35.059Z,1020.83
2023-04-19T01:25:35.063Z,1020.81
2023-04-19T01:26:35.053Z,1020.79
2023-04-19T01:27:35.065Z,1020.81
2023-04-19T01:28:35.055Z,1020.81
2023-04-19T01:29:35.044Z,1020.78
2023-04-19T01:30:35.059Z,1020.79
2023-04-19T01:31:35.129Z,1020.77
2023-04-19T01:32:35.088Z,1020.79
2023-04-19T01:33:35.050Z,1020.80
2023-04-19T01:34:35.023Z,1020.78
2023-04-19T01:35:35.023Z,1020.75
2023-04-19T01:36:35.036Z,1020.76
2023-04-19T01:37:35.022Z,1020.74
2023-04-19T01:38:35.066Z,1020.72
2023-04-19T01:39:35.033Z,1020.75
2023-04-19T01:40:35.040Z,1020.78
2023-04-19T01:41:35.080Z,1020.71
2023-04-19T01:42:35.018Z,1020.72
2023-04-19T01:43:35.073Z,1020.73
2023-04-19T01:44:35.003Z,1020.73
2023-04-19T01:45:35.027Z,1020.69
2023-04-19T01:46:35.070Z,1020.72
2023-04-19T01:47:35.146Z,1020.68
2023-04-19T01:48:35.098Z,1020.68
2023-04-19T01:49:35.025Z,1020.70
2023-04-19T01:50:35.054Z,1020.70
2023-04-19T01:51:35.018Z,1020.70
2023-04-19T01:52:35.022Z,1020.71
2023-04-19T01:53:35.038Z,1020.72
2023-04-19T01:54:34.972Z,1020.71
2023-04-19T01:55:35.056Z,1020.72
2023-04-19T01:56:34.956Z,1020.72
2023-04-19T01:57:34.953Z,1020.73
2023-04-19T01:58:34.953Z,1020.72
2023-04-19T01:59:35.069Z,1020.68
2023-04-19T02:00:34.982Z,1020.71
2023-04-19T02:01:34.940Z,1020.74
2023-04-19T02:02:35.114Z,1020.73
2023-04-19T02:03:35.238Z,1020.71
2023-04-19T02:04:34.923Z,1020.74
2023-04-19T02:05:34.927Z,1020.72
2023-04-19T02:06:34.926Z,1020.74
2023-04-19T02:07:34.917Z,1020.74
2023-04-19T02:08:34.914Z,1020.72
2023-04-19T02:09:34.910Z,1020.72
2023-04-19T02:10:34.908Z,1020.73
2023-04-19T02:11:34.906Z,1020.72
2023-04-19T02:12:34.902Z,1020.71
2023-04-19T02:13:34.903Z,1020.70
2023-04-19T02:14:34.898Z,1020.72
2023-04-19T02:15:34.890Z,1020.69
2023-04-19T02:16:36.111Z,1020.69
2023-04-19T02:17:34.921Z,1020.68
2023-04-19T02:18:35.250Z,1020.68
2023-04-19T02:19:34.879Z,1020.66
2023-04-19T02:20:34.873Z,1020.69
2023-04-19T02:21:34.875Z,1020.64
2023-04-19T02:22:34.865Z,1020.66
2023-04-19T02:23:34.865Z,1020.64
2023-04-19T02:24:34.858Z,1020.61
2023-04-19T02:25:34.889Z,1020.62
2023-04-19T02:26:34.862Z,1020.57
2023-04-19T02:27:34.865Z,1020.56
2023-04-19T02:28:34.849Z,1020.56
2023-04-19T02:29:34.870Z,1020.56
2023-04-19T02:30:34.877Z,1020.53
2023-04-19T02:31:34.856Z,1020.58
2023-04-19T02:32:34.848Z,1020.53
2023-04-19T02:33:34.837Z,1020.55
2023-04-19T02:34:34.848Z,1020.54
2023-04-19T02:35:34.827Z,1020.54
2023-04-19T02:36:34.816Z,1020.55
2023-04-19T02:37:34.819Z,1020.59
2023-04-19T02:38:34.813Z,1020.59
2023-04-19T02:39:34.810Z,1020.54
2023-04-19T02:40:34.807Z,1020.62
2023-04-19T02:41:34.802Z,1020.60
2023-04-19T02:42:34.806Z,1020.60
2023-04-19T02:43:34.796Z,1020.60
2023-04-19T02:44:34.792Z,1020.60
2023-04-19T02:45:34.797Z,1020.56
2023-04-19T02:46:34.842Z,1020.60
2023-04-19T02:47:34.805Z,1020.62
2023-04-19T02:48:34.784Z,1020.64
2023-04-19T02:49:34.774Z,1020.64
2023-04-19T02:50:34.910Z,1020.62
2023-04-19T02:51:34.769Z,1020.63
2023-04-19T02:52:34.779Z,1020.65
2023-04-19T02:53:34.769Z,1020.61
2023-04-19T02:54:34.766Z,1020.63
2023-04-19T02:55:34.769Z,1020.64
2023-04-19T02:56:34.753Z,1020.66
2023-04-19T02:57:34.754Z,1020.64
2023-04-19T02:58:34.747Z,1020.64
2023-04-19T02:59:34.740Z,1020.60
2023-04-19T03:00:34.734Z,1020.58
2023-04-19T03:01:34.758Z,1020.60
2023-04-19T03:02:34.791Z,1020.59
2023-04-19T03:03:34.803Z,1020.58
2023-04-19T03:04:34.745Z,1020.57
2023-04-19T03:05:34.720Z,1020.55
2023-04-19T03:06:34.739Z,1020.55
2023-04-19T03:07:34.713Z,1020.54
2023-04-19T03:08:34.707Z,1020.52
2023-04-19T03:09:34.724Z,1020.53
2023-04-19T03:10:34.699Z,1020.53
2023-04-19T03:11:34.694Z,1020.54
2023-04-19T03:12:34.695Z,1020.49
2023-04-19T03:13:34.690Z,1020.51
2023-04-19T03:14:34.683Z,1020.49
2023-04-19T03:15:34.706Z,1020.48
2023-04-19T03:16:34.682Z,1020.49
2023-04-19T03:17:34.751Z,1020.47
2023-04-19T03:18:34.699Z,1020.43
2023-04-19T03:19:34.666Z,1020.43
2023-04-19T03:20:34.665Z,1020.37
2023-04-19T03:21:34.656Z,1020.38
2023-04-19T03:22:34.670Z,1020.38
2023-04-19T03:23:34.848Z,1020.38
2023-04-19T03:24:37.548Z,1020.40
2023-04-19T03:25:34.642Z,1020.38
2023-04-19T03:26:34.634Z,1020.37
2023-04-19T03:27:34.631Z,1020.39
2023-04-19T03:28:34.657Z,1020.38
2023-04-19T03:29:34.626Z,1020.35
2023-04-19T03:30:34.625Z,1020.33
2023-04-19T03:31:34.682Z,1020.33
2023-04-19T03:32:34.730Z,1020.31
2023-04-19T03:33:34.608Z,1020.33
2023-04-19T03:34:34.608Z,1020.30
2023-04-19T03:35:34.603Z,1020.28
2023-04-19T03:36:34.605Z,1020.27
2023-04-19T03:37:34.598Z,1020.33
2023-04-19T03:38:34.616Z,1020.29
2023-04-19T03:39:34.590Z,1020.27
2023-04-19T03:40:34.587Z,1020.32
2023-04-19T03:41:34.576Z,1020.28
2023-04-19T03:42:34.589Z,1020.29
2023-04-19T03:43:34.571Z,1020.27
2023-04-19T03:44:34.576Z,1020.24
2023-04-19T03:45:34.563Z,1020.26
2023-04-19T03:46:34.585Z,1020.25
2023-04-19T03:47:34.559Z,1020.24
2023-04-19T03:48:34.558Z,1020.28
2023-04-19T03:49:34.551Z,1020.25
2023-04-19T03:50:34.553Z,1020.26
2023-04-19T03:51:34.542Z,1020.29
2023-04-19T03:52:34.544Z,1020.25
2023-04-19T03:53:34.537Z,1020.27
2023-04-19T03:54:34.551Z,1020.27
2023-04-19T03:55:34.526Z,1020.24
2023-04-19T03:56:34.533Z,1020.24
2023-04-19T03:57:34.530Z,1020.23
2023-04-19T03:58:34.519Z,1020.23
2023-04-19T03:59:34.510Z,1020.24
2023-04-19T04:00:34.516Z,1020.18
2023-04-19T04:01:34.509Z,1020.18
2023-04-19T04:02:34.644Z,1020.20
2023-04-19T04:03:34.811Z,1020.21
2023-04-19T04:04:34.834Z,1020.24
2023-04-19T04:05:34.626Z,1020.20
2023-04-19T04:06:34.487Z,1020.22
2023-04-19T04:07:34.491Z,1020.21
2023-04-19T04:08:34.478Z,1020.20
2023-04-19T04:09:34.472Z,1020.17
2023-04-19T04:10:34.508Z,1020.15
2023-04-19T04:11:34.471Z,1020.13
2023-04-19T04:12:34.477Z,1020.15
2023-04-19T04:13:34.479Z,1020.16
2023-04-19T04:14:34.464Z,1020.16
2023-04-19T04:15:34.454Z,1020.15
2023-04-19T04:16:34.534Z,1020.13
2023-04-19T04:17:34.505Z,1020.15
2023-04-19T04:18:34.443Z,1020.15
2023-04-19T04:19:34.442Z,1020.15
2023-04-19T04:20:34.439Z,1020.19
2023-04-19T04:21:34.433Z,1020.13
2023-04-19T04:22:34.431Z,1020.15
2023-04-19T04:23:34.437Z,1020.19
2023-04-19T04:24:34.419Z,1020.17
2023-04-19T04:25:34.415Z,1020.19
2023-04-19T04:26:34.559Z,1020.21
2023-04-19T04:27:34.417Z,1020.16
2023-04-19T04:28:34.415Z,1020.17
2023-04-19T04:29:34.416Z,1020.21
2023-04-19T04:30:34.421Z,1020.21
2023-04-19T04:31:34.459Z,1020.24
2023-04-19T04:32:34.455Z,1020.23
2023-04-19T04:33:34.410Z,1020.24
2023-04-19T04:34:34.416Z,1020.18
2023-04-19T04:35:34.408Z,1020.22
2023-04-19T04:36:34.404Z,1020.19
2023-04-19T04:37:34.401Z,1020.19
2023-04-19T04:38:34.393Z,1020.20
2023-04-19T04:39:34.386Z,1020.20
2023-04-19T04:40:34.384Z,1020.20
2023-04-19T04:41:34.383Z,1020.20
2023-04-19T04:42:34.417Z,1020.24
2023-04-19T04:43:34.376Z,1020.19
2023-04-19T04:44:34.373Z,1020.18
2023-04-19T04:45:34.385Z,1020.25
2023-04-19T04:46:34.369Z,1020.22
2023-04-19T04:47:34.448Z,1020.21
2023-04-19T04:48:34.361Z,1020.21
2023-04-19T04:49:34.369Z,1020.25
2023-04-19T04:50:34.352Z,1020.31
2023-04-19T04:51:34.352Z,1020.23
2023-04-19T04:52:34.350Z,1020.26
2023-04-19T04:53:34.345Z,1020.20
2023-04-19T04:54:34.344Z,1020.24
2023-04-19T04:55:34.336Z,1020.22
2023-04-19T04:56:34.370Z,1020.20
2023-04-19T04:57:34.334Z,1020.24
2023-04-19T04:58:34.346Z,1020.23
2023-04-19T04:59:34.322Z,1020.23
2023-04-19T05:00:34.318Z,1020.19
2023-04-19T05:01:34.374Z,1020.21
2023-04-19T05:02:34.466Z,1020.25
2023-04-19T05:03:34.334Z,1020.24
2023-04-19T05:04:34.355Z,1020.16
2023-04-19T05:05:34.301Z,1020.18
2023-04-19T05:06:34.300Z,1020.19
2023-04-19T05:07:34.296Z,1020.23
2023-04-19T05:08:34.302Z,1020.20
2023-04-19T05:09:34.314Z,1020.18
2023-04-19T05:10:34.289Z,1020.20
2023-04-19T05:11:34.304Z,1020.20
2023-04-19T05:12:34.278Z,1020.13
2023-04-19T05:13:34.269Z,1020.15
2023-04-19T05:14:34.325Z,1020.16
2023-04-19T05:15:34.261Z,1020.15
2023-04-19T05:16:34.331Z,1020.19
2023-04-19T05:17:34.293Z,1020.17
2023-04-19T05:18:34.256Z,1020.18
2023-04-19T05:19:34.250Z,1020.13
2023-04-19T05:20:34.252Z,1020.11
2023-04-19T05:21:34.250Z,1020.10
2023-04-19T05:22:34.240Z,1020.13
2023-04-19T05:23:34.389Z,1020.16
2023-04-19T05:24:34.260Z,1020.17
2023-04-19T05:25:34.230Z,1020.19
2023-04-19T05:26:34.234Z,1020.16
2023-04-19T05:27:34.221Z,1020.18
2023-04-19T05:28:34.232Z,1020.14
2023-04-19T05:29:34.229Z,1020.07
2023-04-19T05:30:34.235Z,1020.17
2023-04-19T05:31:34.247Z,1020.16
2023-04-19T05:32:34.238Z,1020.18
2023-04-19T05:33:34.204Z,1020.18
2023-04-19T05:34:34.196Z,1020.16
2023-04-19T05:35:34.189Z,1020.18
2023-04-19T05:36:34.194Z,1020.15
2023-04-19T05:37:34.184Z,1020.17
2023-04-19T05:38:34.186Z,1020.12
2023-04-19T05:39:34.175Z,1020.12
2023-04-19T05:40:34.174Z,1020.17
2023-04-19T05:41:34.178Z,1020.11
2023-04-19T05:42:34.170Z,1020.10
2023-04-19T05:43:34.180Z,1020.17
2023-04-19T05:44:34.164Z,1020.15
2023-04-19T05:45:34.169Z,1020.15
2023-04-19T05:46:34.232Z,1020.11
2023-04-19T05:47:34.267Z,1020.14
2023-04-19T05:48:34.146Z,1020.11
2023-04-19T05:49:34.144Z,1020.17
2023-04-19T05:50:34.142Z,1020.20
2023-04-19T05:51:34.141Z,1020.09
2023-04-19T05:52:34.131Z,1020.13
2023-04-19T05:53:34.132Z,1020.19
2023-04-19T05:54:34.125Z,1020.10
2023-04-19T05:55:34.120Z,1020.06
2023-04-19T05:56:34.162Z,1020.16
2023-04-19T05:57:34.146Z,1020.21
2023-04-19T05:58:34.113Z,1020.15
2023-04-19T05:59:34.116Z,1020.12
2023-04-19T06:00:34.101Z,1020.11
2023-04-19T06:01:34.101Z,1020.22
2023-04-19T06:02:34.292Z,1020.14
2023-04-19T06:03:34.233Z,1020.20
2023-04-19T06:04:34.306Z,1020.17
2023-04-19T06:05:34.094Z,1020.17
2023-04-19T06:06:34.080Z,1020.17
2023-04-19T06:07:36.140Z,1020.14
2023-04-19T06:08:34.081Z,1020.16
2023-04-19T06:09:34.068Z,1020.20
2023-04-19T06:10:48.908Z,1020.21
2023-04-19T06:11:42.852Z,1020.17
2023-04-19T06:12:34.062Z,1020.15
2023-04-19T06:13:34.055Z,1020.12
2023-04-19T06:14:34.050Z,1020.14
2023-04-19T06:15:34.042Z,1020.14
2023-04-19T06:16:34.137Z,1020.15
2023-04-19T06:17:34.130Z,1020.20
2023-04-19T06:18:34.055Z,1020.15
2023-04-19T06:19:34.048Z,1020.14
2023-04-19T06:20:34.035Z,1020.10
2023-04-19T06:21:34.022Z,1020.11
2023-04-19T06:22:34.018Z,1020.13
2023-04-19T06:23:34.017Z,1020.16
2023-04-19T06:24:35.359Z,1020.13
2023-04-19T06:25:34.004Z,1020.19
2023-04-19T06:26:34.007Z,1020.17
2023-04-19T06:27:34.000Z,1020.15
2023-04-19T06:28:34.000Z,1020.15
2023-04-19T06:29:34.003Z,1020.16
2023-04-19T06:30:33.986Z,1020.14
2023-04-19T06:31:34.103Z,1020.12
2023-04-19T06:32:34.004Z,1020.19
2023-04-19T06:33:33.985Z,1020.20
2023-04-19T06:34:34.098Z,1020.14
2023-04-19T06:35:33.969Z,1020.24
2023-04-19T06:36:33.977Z,1020.08
2023-04-19T06:37:33.959Z,1020.13
2023-04-19T06:38:33.959Z,1020.16
2023-04-19T06:39:33.957Z,1020.07
2023-04-19T06:40:33.952Z,1020.12
2023-04-19T06:41:34.045Z,1020.16
2023-04-19T06:42:33.946Z,1020.14
2023-04-19T06:43:33.947Z,1020.17
2023-04-19T06:44:33.942Z,1020.08
2023-04-19T06:45:33.966Z,1020.08
2023-04-19T06:46:33.928Z,1020.11
2023-04-19T06:47:35.592Z,1020.14
2023-04-19T06:48:33.936Z,1020.11
2023-04-19T06:49:33.922Z,1020.13
2023-04-19T06:50:34.075Z,1020.08
2023-04-19T06:51:34.078Z,1020.07
2023-04-19T06:52:33.908Z,1020.12
2023-04-19T06:53:33.903Z,1020.10
2023-04-19T06:54:33.912Z,1020.10
2023-04-19T06:55:33.914Z,1020.18
2023-04-19T06:56:33.892Z,1020.12
2023-04-19T06:57:33.915Z,1020.12
2023-04-19T06:58:35.103Z,1020.09
2023-04-19T06:59:33.876Z,1020.11
2023-04-19T07:00:33.878Z,1020.17
2023-04-19T07:01:33.939Z,1020.14
2023-04-19T07:02:34.200Z,1020.13
2023-04-19T07:03:34.068Z,1020.16
2023-04-19T07:04:34.034Z,1020.19
2023-04-19T07:05:33.860Z,1020.15
2023-04-19T07:06:33.875Z,1020.18
2023-04-19T07:07:33.854Z,1020.20
2023-04-19T07:08:48.641Z,1020.16
2023-04-19T07:09:33.841Z,1020.16
2023-04-19T07:10:33.837Z,1020.13
2023-04-19T07:11:33.840Z,1020.11
2023-04-19T07:12:33.833Z,1020.14
2023-04-19T07:13:33.830Z,1020.09
2023-04-19T07:14:33.829Z,1020.11
2023-04-19T07:15:33.867Z,1020.10
2023-04-19T07:16:33.914Z,1020.12
2023-04-19T07:17:33.916Z,1020.08
2023-04-19T07:18:33.812Z,1020.11
2023-04-19T07:19:33.807Z,1020.10
2023-04-19T07:20:33.808Z,1020.12
2023-04-19T07:21:33.798Z,1020.11
2023-04-19T07:22:33.897Z,1020.10
2023-04-19T07:23:33.794Z,1020.14
2023-04-19T07:24:33.790Z,1020.14
2023-04-19T07:25:33.785Z,1020.15
2023-04-19T07:26:33.783Z,1020.16
2023-04-19T07:27:33.779Z,1020.16
2023-04-19T07:28:33.776Z,1020.16
2023-04-19T07:29:34.239Z,1020.17
2023-04-19T07:30:33.769Z,1020.16
2023-04-19T07:31:33.774Z,1020.15
2023-04-19T07:32:33.814Z,1020.14
2023-04-19T07:33:33.794Z,1020.13
2023-04-19T07:34:33.763Z,1020.11
2023-04-19T07:35:33.757Z,1020.08
2023-04-19T07:36:33.756Z,1020.10
2023-04-19T07:37:33.748Z,1020.10
2023-04-19T07:38:33.830Z,1020.10
2023-04-19T07:39:33.754Z,1020.08
2023-04-19T07:40:33.752Z,1020.12
2023-04-19T07:41:34.911Z,1020.15
2023-04-19T07:42:33.737Z,1020.13
2023-04-19T07:43:33.737Z,1020.16
2023-04-19T07:44:33.728Z,1020.19
2023-04-19T07:45:33.733Z,1020.12
2023-04-19T07:46:33.767Z,1020.11
2023-04-19T07:47:33.746Z,1020.15
2023-04-19T07:48:33.717Z,1020.23
2023-04-19T07:49:33.718Z,1020.18
2023-04-19T07:50:33.710Z,1020.17
2023-04-19T07:51:33.723Z,1020.22
2023-04-19T07:52:33.703Z,1020.28
2023-04-19T07:53:33.706Z,1020.23
2023-04-19T07:54:33.722Z,1020.19
2023-04-19T07:55:33.699Z,1020.15
2023-04-19T07:56:33.693Z,1020.33
2023-04-19T07:57:33.692Z,1020.25
2023-04-19T07:58:33.689Z,1020.31
2023-04-19T07:59:33.700Z,1020.24
2023-04-19T08:00:33.683Z,1020.34
2023-04-19T08:01:33.745Z,1020.35
2023-04-19T08:02:33.845Z,1020.43
2023-04-19T08:03:33.965Z,1020.43
2023-04-19T08:04:33.937Z,1020.44
2023-04-19T08:05:33.767Z,1020.37
2023-04-19T08:06:33.686Z,1020.28
2023-04-19T08:07:33.675Z,1020.26
2023-04-19T08:08:34.198Z,1020.32
2023-04-19T08:09:33.736Z,1020.36
2023-04-19T08:10:33.683Z,1020.52
2023-04-19T08:11:33.677Z,1020.54
2023-04-19T08:12:39.352Z,1020.53
2023-04-19T08:13:33.853Z,1020.56
2023-04-19T08:14:43.865Z,1020.52
2023-04-19T08:17:40.700Z,1020.49
2023-04-19T08:18:33.729Z,1020.56
2023-04-19T08:19:33.661Z,1020.54
2023-04-19T08:20:33.658Z,1020.59
2023-04-19T08:21:40.561Z,1020.57
2023-04-19T08:22:33.661Z,1020.58
2023-04-19T08:23:47.365Z,1020.53
2023-04-19T08:24:33.667Z,1020.53
2023-04-19T08:25:33.667Z,1020.59
2023-04-19T08:26:33.709Z,1020.56
2023-04-19T08:27:33.665Z,1020.57
2023-04-19T08:28:33.692Z,1020.63
2023-04-19T08:29:33.685Z,1020.64
2023-04-19T08:30:33.667Z,1020.63
2023-04-19T08:31:33.707Z,1020.68
2023-04-19T08:32:33.716Z,1020.66
2023-04-19T08:33:33.668Z,1020.66
2023-04-19T08:34:34.070Z,1020.71
2023-04-19T08:35:33.672Z,1020.64
2023-04-19T08:36:39.401Z,1020.65
2023-04-19T08:37:33.673Z,1020.62
2023-04-19T08:38:33.692Z,1020.66
2023-04-19T08:39:34.390Z,1020.55
2023-04-19T08:40:33.682Z,1020.66
2023-04-19T08:41:33.697Z,1020.71
2023-04-19T08:42:36.835Z,1020.71
2023-04-19T08:43:33.707Z,1020.67
2023-04-19T08:44:36.743Z,1020.56
2023-04-19T08:45:33.694Z,1020.57
2023-04-19T08:46:33.749Z,1020.48
2023-04-19T08:47:34.180Z,1020.37
2023-04-19T08:48:33.706Z,1020.35
2023-04-19T08:49:33.688Z,1020.30
2023-04-19T08:50:42.594Z,1020.34
2023-04-19T08:51:33.688Z,1020.36
2023-04-19T08:52:35.419Z,1020.36
2023-04-19T08:53:33.693Z,1020.27
2023-04-19T08:54:33.686Z,1020.31
2023-04-19T08:55:33.708Z,1020.23
2023-04-19T08:56:35.994Z,1020.21
2023-04-19T08:57:33.703Z,1020.19
2023-04-19T08:58:51.936Z,1020.16
2023-04-19T08:59:33.684Z,1020.09
2023-04-19T09:00:33.693Z,1020.11
2023-04-19T09:01:36.108Z,1020.13
2023-04-19T09:02:33.901Z,1020.12
2023-04-19T09:03:44.046Z,1020.13
2023-04-19T09:04:37.423Z,1020.01
2023-04-19T09:05:34.018Z,1020.08
2023-04-19T09:06:34.032Z,1020.07
2023-04-19T09:07:33.677Z,1020.06
2023-04-19T09:08:33.677Z,1020.20
2023-04-19T09:09:40.711Z,1020.10
2023-04-19T09:10:33.674Z,1020.21
2023-04-19T09:11:33.674Z,1020.09
2023-04-19T09:12:33.674Z,1020.12
2023-04-19T09:13:33.676Z,1020.10
2023-04-19T09:14:33.762Z,1020.05
2023-04-19T09:15:33.710Z,1020.03
2023-04-19T09:16:33.669Z,1020.01
2023-04-19T09:17:33.707Z,1020.04
2023-04-19T09:18:37.810Z,1020.09
2023-04-19T09:19:33.664Z,1020.00
2023-04-19T09:20:33.658Z,1020.06
2023-04-19T09:21:33.669Z,1020.03
2023-04-19T09:22:33.683Z,1019.97
2023-04-19T09:23:33.673Z,1019.99
2023-04-19T09:24:54.044Z,1020.01
2023-04-19T09:25:47.121Z,1019.93
2023-04-19T09:26:33.649Z,1019.98
2023-04-19T09:27:33.679Z,1019.96
2023-04-19T09:28:33.638Z,1020.01
2023-04-19T09:29:33.644Z,1019.96
2023-04-19T09:30:40.271Z,1019.99
2023-04-19T09:31:48.037Z,1019.90
2023-04-19T09:32:33.680Z,1019.88
2023-04-19T09:33:33.646Z,1019.87
2023-04-19T09:34:33.689Z,1019.86
2023-04-19T09:35:33.632Z,1019.89
2023-04-19T09:36:33.619Z,1019.80
2023-04-19T09:37:57.265Z,1019.77
2023-04-19T09:38:33.615Z,1019.67
2023-04-19T09:39:33.632Z,1019.73
2023-04-19T09:40:33.609Z,1019.76
2023-04-19T09:41:33.633Z,1019.73
2023-04-19T09:42:54.500Z,1019.84
2023-04-19T09:45:02.220Z,1019.68
2023-04-19T09:45:33.616Z,1019.63
2023-04-19T09:46:33.677Z,1019.71
2023-04-19T09:47:33.604Z,1019.66
2023-04-19T09:48:33.586Z,1019.66
2023-04-19T09:49:46.058Z,1019.65
2023-04-19T09:50:36.126Z,1019.62
2023-04-19T09:51:33.580Z,1019.66
2023-04-19T09:52:33.579Z,1019.67
2023-04-19T09:53:33.576Z,1019.64
2023-04-19T09:54:33.576Z,1019.67
2023-04-19T09:55:42.351Z,1019.64
2023-04-19T09:56:33.566Z,1019.67
2023-04-19T09:57:33.566Z,1019.61
2023-04-19T09:58:48.957Z,1019.64
2023-04-19T09:59:33.558Z,1019.65
2023-04-19T10:00:38.992Z,1019.63
2023-04-19T10:01:33.571Z,1019.60
2023-04-19T10:02:34.079Z,1019.56
2023-04-19T10:03:33.682Z,1019.61
2023-04-19T10:04:54.745Z,1019.62
2023-04-19T10:05:33.790Z,1019.64
2023-04-19T10:06:48.530Z,1019.61
2023-04-19T10:07:33.589Z,1019.57
2023-04-19T10:08:33.542Z,1019.58
2023-04-19T10:09:35.677Z,1019.61
2023-04-19T10:10:41.913Z,1019.60
2023-04-19T10:11:33.531Z,1019.50
2023-04-19T10:13:33.533Z,1019.53
2023-04-19T10:14:33.978Z,1019.57
2023-04-19T10:15:49.491Z,1019.63
2023-04-19T10:16:33.524Z,1019.46
2023-04-19T10:17:33.602Z,1019.58
2023-04-19T10:18:33.544Z,1019.53
2023-04-19T10:19:33.511Z,1019.58
2023-04-19T10:20:33.513Z,1019.54
2023-04-19T10:21:33.527Z,1019.57
2023-04-19T10:22:33.498Z,1019.55
2023-04-19T10:23:33.510Z,1019.59
2023-04-19T10:24:33.493Z,1019.50
2023-04-19T10:25:33.504Z,1019.61
2023-04-19T10:26:33.508Z,1019.64
2023-04-19T10:27:33.491Z,1019.47
2023-04-19T10:28:33.488Z,1019.54
2023-04-19T10:29:33.480Z,1019.56
2023-04-19T10:30:33.473Z,1019.44
2023-04-19T10:31:33.495Z,1019.46
2023-04-19T10:32:33.561Z,1019.53
2023-04-19T10:33:33.469Z,1019.43
2023-04-19T10:34:33.486Z,1019.41
2023-04-19T10:35:33.478Z,1019.44
2023-04-19T10:36:33.563Z,1019.42
2023-04-19T10:37:33.456Z,1019.40
2023-04-19T10:38:33.453Z,1019.50
2023-04-19T10:39:33.464Z,1019.51
2023-04-19T10:40:33.450Z,1019.45
2023-04-19T10:41:33.446Z,1019.50
2023-04-19T10:42:33.440Z,1019.52
2023-04-19T10:43:33.443Z,1019.38
2023-04-19T10:44:33.443Z,1019.45
2023-04-19T10:45:33.443Z,1019.45
2023-04-19T10:46:33.462Z,1019.36
2023-04-19T10:47:33.490Z,1019.38
2023-04-19T10:48:33.585Z,1019.33
2023-04-19T10:49:33.421Z,1019.38
2023-04-19T10:50:33.578Z,1019.33
2023-04-19T10:51:33.428Z,1019.28
2023-04-19T10:52:33.413Z,1019.40
2023-04-19T10:53:33.424Z,1019.36
2023-04-19T10:54:33.403Z,1019.22
2023-04-19T10:55:33.404Z,1019.23
2023-04-19T10:56:33.474Z,1019.34
2023-04-19T10:57:33.396Z,1019.28
2023-04-19T10:58:33.391Z,1019.28
2023-04-19T10:59:33.400Z,1019.34
2023-04-19T11:00:33.391Z,1019.21
2023-04-19T11:01:33.720Z,1019.22
2023-04-19T11:02:33.555Z,1019.15
2023-04-19T11:03:33.478Z,1019.13
2023-04-19T11:04:33.420Z,1019.19
2023-04-19T11:05:33.375Z,1019.22
2023-04-19T11:06:33.400Z,1019.14
2023-04-19T11:07:33.370Z,1019.16
2023-04-19T11:08:37.398Z,1019.15
2023-04-19T11:09:33.370Z,1019.20
2023-04-19T11:10:33.363Z,1019.21
2023-04-19T11:11:33.366Z,1019.26
2023-04-19T11:12:33.351Z,1019.19
2023-04-19T11:13:33.352Z,1019.23
2023-04-19T11:14:33.791Z,1019.26
2023-04-19T11:15:33.342Z,1019.24
2023-04-19T11:16:45.036Z,1019.25
2023-04-19T11:17:33.420Z,1019.24
2023-04-19T11:18:33.363Z,1019.27
2023-04-19T11:19:33.336Z,1019.18
2023-04-19T11:20:33.320Z,1019.26
2023-04-19T11:21:33.324Z,1019.17
2023-04-19T11:22:33.362Z,1019.23
2023-04-19T11:23:33.317Z,1019.23
2023-04-19T11:24:33.313Z,1019.22
2023-04-19T11:25:33.310Z,1019.13
2023-04-19T11:26:33.310Z,1019.18
2023-04-19T11:27:33.312Z,1019.19
2023-04-19T11:28:33.301Z,1019.09
2023-04-19T11:29:33.301Z,1019.22
2023-04-19T11:30:33.297Z,1019.12
2023-04-19T11:31:33.331Z,1019.08
2023-04-19T11:32:33.347Z,1019.12
2023-04-19T11:33:33.284Z,1019.12
2023-04-19T11:34:33.281Z,1019.15
2023-04-19T11:35:33.277Z,1019.03
2023-04-19T11:36:33.276Z,1019.08
2023-04-19T11:37:35.820Z,1019.10
2023-04-19T11:38:33.289Z,1019.15
2023-04-19T11:39:33.275Z,1019.18
2023-04-19T11:40:33.263Z,1019.04
2023-04-19T11:41:33.265Z,1019.10
2023-04-19T11:42:33.269Z,1019.16
2023-04-19T11:43:33.257Z,1019.03
2023-04-19T11:44:33.256Z,1019.06
2023-04-19T11:45:35.841Z,1019.05
2023-04-19T11:46:33.328Z,1018.98
2023-04-19T11:47:33.341Z,1018.97
2023-04-19T11:48:33.240Z,1018.92
2023-04-19T11:49:33.238Z,1018.95
2023-04-19T11:50:33.274Z,1019.11
2023-04-19T11:51:33.232Z,1018.99
2023-04-19T11:52:33.229Z,1018.95
2023-04-19T11:53:33.230Z,1018.94
2023-04-19T11:54:33.251Z,1018.94
2023-04-19T11:55:33.217Z,1019.02
2023-04-19T11:56:33.218Z,1018.96
2023-04-19T11:57:33.215Z,1018.84
2023-04-19T11:58:33.238Z,1018.84
2023-04-19T11:59:33.211Z,1018.75
2023-04-19T12:00:33.209Z,1018.88
2023-04-19T12:01:33.206Z,1018.82
2023-04-19T12:02:33.280Z,1018.79
2023-04-19T12:03:33.350Z,1018.80
2023-04-19T12:04:33.372Z,1018.77
2023-04-19T12:05:33.405Z,1018.79
2023-04-19T12:06:33.206Z,1018.84
2023-04-19T12:07:33.185Z,1018.83
2023-04-19T12:08:33.206Z,1018.78
2023-04-19T12:09:33.173Z,1018.77